createdAt,value
2022-11-27T00:00:17.636Z,2.20
2022-11-27T00:10:18.891Z,2.30
2022-11-27T00:20:20.167Z,2.30
2022-11-27T00:30:21.393Z,1.98
2022-11-27T00:40:22.620Z,2.20
2022-11-27T00:50:23.859Z,2.17
2022-11-27T01:00:25.121Z,2.10
2022-11-27T01:10:26.345Z,2.58
2022-11-27T01:20:27.617Z,2.30
2022-11-27T01:30:28.858Z,2.63
2022-11-27T01:40:30.097Z,2.30
2022-11-27T01:50:31.345Z,2.17
2022-11-27T02:00:32.563Z,2.28
2022-11-27T02:10:33.826Z,2.42
2022-11-27T02:20:35.105Z,2.25
2022-11-27T02:30:36.354Z,2.53
2022-11-27T02:40:37.628Z,2.53
2022-11-27T02:50:38.922Z,2.20
2022-11-27T03:00:40.185Z,2.78
2022-11-27T03:10:41.431Z,2.60
2022-11-27T03:20:42.706Z,2.33
2022-11-27T03:30:43.917Z,2.50
2022-11-27T03:40:45.135Z,2.63
2022-11-27T03:50:46.441Z,2.28
2022-11-27T04:00:47.734Z,2.45
2022-11-27T04:10:48.977Z,2.10
2022-11-27T04:20:50.199Z,2.53
2022-11-27T04:40:52.719Z,2.00
2022-11-27T04:50:53.934Z,1.98
2022-11-27T05:00:55.179Z,2.13
2022-11-27T05:10:56.436Z,2.20
2022-11-27T05:20:57.680Z,1.85
2022-11-27T05:30:58.943Z,2.20
2022-11-27T05:41:00.210Z,1.90
2022-11-27T05:51:01.421Z,2.13
2022-11-27T06:01:02.701Z,1.80
2022-11-27T06:11:03.930Z,1.90
2022-11-27T06:21:05.148Z,2.00
2022-11-27T06:31:06.640Z,1.90
2022-11-27T06:41:07.953Z,1.80
2022-11-27T06:51:09.259Z,1.75
2022-11-27T07:01:11.208Z,2.15
2022-11-27T07:11:12.610Z,1.88
2022-11-27T07:21:13.825Z,1.80
2022-11-27T07:31:15.226Z,1.60
2022-11-27T07:41:16.524Z,1.83
2022-11-27T07:51:17.866Z,2.00
2022-11-27T08:01:19.152Z,1.90
2022-11-27T08:11:20.423Z,1.50
2022-11-27T08:21:21.831Z,1.50
2022-11-27T08:31:23.229Z,1.70
2022-11-27T08:41:24.542Z,1.63
2022-11-27T08:51:25.929Z,1.80
2022-11-27T09:01:27.771Z,1.40
2022-11-27T09:11:29.355Z,1.92
2022-11-27T09:21:30.777Z,1.77
2022-11-27T09:31:32.210Z,1.80
2022-11-27T09:41:33.533Z,2.10
2022-11-27T09:51:34.910Z,1.73
2022-11-27T10:01:46.221Z,2.47
2022-11-27T10:11:50.768Z,2.05
2022-11-27T10:21:53.368Z,2.33
2022-11-27T10:42:22.718Z,2.50
2022-11-27T10:52:24.300Z,2.33
2022-11-27T11:02:33.185Z,1.85
2022-11-27T11:12:34.592Z,2.60
2022-11-27T11:22:42.711Z,2.47
2022-11-27T11:32:50.671Z,2.63
2022-11-27T11:42:58.700Z,2.60
2022-11-27T11:53:06.685Z,2.63
2022-11-27T12:03:15.692Z,2.63
2022-11-27T12:13:27.809Z,2.35
2022-11-27T12:23:31.637Z,2.40
2022-11-27T12:33:39.640Z,2.50
2022-11-27T12:43:50.017Z,2.58
2022-11-27T12:54:00.792Z,2.95
2022-11-27T13:04:05.191Z,2.83
2022-11-27T13:24:36.690Z,3.35
2022-11-27T13:34:43.240Z,3.00
2022-11-27T13:44:44.621Z,3.00
2022-11-27T14:15:31.636Z,3.15
2022-11-27T14:25:33.528Z,2.95
2022-11-27T14:35:38.439Z,2.92
2022-11-27T14:56:08.447Z,2.60
2022-11-27T15:06:17.168Z,2.90
2022-11-27T15:16:19.389Z,2.78
2022-11-27T15:26:25.119Z,2.50
2022-11-27T15:57:20.576Z,2.83
2022-11-27T16:07:27.321Z,2.90
2022-11-27T16:17:28.772Z,3.20
2022-11-27T16:27:31.058Z,2.85
2022-11-27T16:58:16.603Z,3.38
2022-11-27T17:08:18.305Z,3.40
2022-11-27T18:10:37.813Z,3.35
2022-11-27T18:20:42.130Z,3.28
2022-11-27T18:30:43.848Z,3.13
2022-11-27T18:40:45.458Z,3.15
2022-11-27T18:50:46.846Z,2.63
2022-11-27T19:00:48.294Z,3.45
2022-11-27T19:10:49.739Z,3.40
2022-11-27T19:20:51.117Z,3.63
2022-11-27T19:30:52.460Z,3.38
2022-11-27T19:40:53.841Z,3.15
2022-11-27T19:50:55.192Z,3.03
2022-11-27T20:00:56.613Z,3.40
2022-11-27T20:10:57.945Z,3.38
2022-11-27T20:20:59.329Z,3.20
2022-11-27T20:31:00.703Z,3.20
2022-11-27T20:41:03.246Z,2.67
2022-11-27T20:51:04.643Z,2.70
2022-11-27T21:01:06.108Z,2.72
2022-11-27T21:11:07.573Z,3.10
2022-11-27T21:21:08.952Z,3.15
2022-11-27T21:31:10.374Z,3.10
2022-11-27T21:41:11.762Z,3.05
2022-11-27T21:51:13.019Z,3.20
2022-11-27T22:01:14.600Z,3.30
2022-11-27T22:11:16.766Z,3.00
2022-11-27T22:21:18.248Z,2.90
2022-11-27T22:31:19.639Z,2.60
2022-11-27T22:41:21.003Z,2.75
2022-11-27T22:51:22.249Z,2.85
2022-11-27T23:01:23.631Z,2.60
2022-11-27T23:11:24.867Z,3.17
2022-11-27T23:21:26.147Z,2.60
2022-11-27T23:31:31.673Z,2.88
2022-11-27T23:41:33.209Z,3.05
2022-11-27T23:51:34.493Z,3.00
